Time;durP1;ratioP1;P1;durP2;ratioP2;P2;SDS_P1;SDS_P2;PMS_P1;PMS_P2;Temp;Humidity;BMP_temperature;BMP_pressure;BME280_temperature;BME280_humidity;BME280_pressure;Samples;Min_cycle;Max_cycle;Signal;HPM_P1;HPM_P2
2023/09/22 00:01:17;;;;;;;6.40;2.25;;;13.70;99.90;;;;;;5076784;28;19922;-90
2023/09/22 00:03:42;;;;;;;3.42;2.20;;;13.70;99.90;;;;;;5074906;28;20056;-90
2023/09/22 00:06:09;;;;;;;3.67;2.58;;;13.70;99.90;;;;;;5043330;28;20035;-90
2023/09/22 00:08:34;;;;;;;4.45;2.28;;;13.90;99.90;;;;;;5073849;28;20048;-90
2023/09/22 00:11:04;;;;;;;3.28;2.17;;;13.70;99.90;;;;;;5075849;28;20040;-90
2023/09/22 00:13:31;;;;;;;3.95;2.08;;;13.70;99.90;;;;;;5076328;28;20490;-90
2023/09/22 00:15:57;;;;;;;3.95;2.40;;;13.70;99.90;;;;;;5043369;28;22416;-90
2023/09/22 00:18:23;;;;;;;4.53;1.98;;;13.60;99.90;;;;;;5085772;28;20059;-90
2023/09/22 00:20:48;;;;;;;6.57;2.50;;;13.80;99.90;;;;;;5064736;28;20039;-90
2023/09/22 00:23:15;;;;;;;3.17;2.00;;;13.60;99.90;;;;;;5063910;28;20066;-90
2023/09/22 00:25:41;;;;;;;3.38;2.20;;;13.70;99.90;;;;;;5057441;28;20059;-90
2023/09/22 00:28:07;;;;;;;3.50;2.20;;;13.70;99.90;;;;;;5058565;28;20067;-90
2023/09/22 00:30:33;;;;;;;3.90;2.30;;;13.80;99.90;;;;;;5074900;28;20474;-89
2023/09/22 00:32:59;;;;;;;3.55;2.00;;;13.80;99.90;;;;;;5057871;28;20043;-88
2023/09/22 00:35:25;;;;;;;3.20;2.15;;;13.90;99.90;;;;;;5077579;28;20040;-89
2023/09/22 00:37:51;;;;;;;4.35;2.35;;;13.70;99.90;;;;;;5075119;28;20048;-87
2023/09/22 00:40:17;;;;;;;2.97;2.00;;;13.80;99.90;;;;;;5069624;28;20045;-89
2023/09/22 00:42:43;;;;;;;6.15;2.25;;;13.90;99.90;;;;;;5087106;28;20069;-88
2023/09/22 00:45:09;;;;;;;3.72;2.20;;;13.90;99.90;;;;;;5059710;28;20032;-88
2023/09/22 00:47:36;;;;;;;2.78;1.85;;;13.80;99.90;;;;;;5060388;28;20391;-89
2023/09/22 00:50:02;;;;;;;3.30;2.13;;;14.00;99.90;;;;;;5058918;28;20660;-89
2023/09/22 00:52:29;;;;;;;2.23;1.70;;;13.90;99.90;;;;;;5077723;28;20482;-89
2023/09/22 00:54:57;;;;;;;4.05;1.80;;;13.80;99.90;;;;;;5058033;28;20462;-89
2023/09/22 00:57:23;;;;;;;2.38;1.30;;;13.90;99.90;;;;;;5071496;28;20036;-89
2023/09/22 00:59:50;;;;;;;4.82;1.70;;;13.80;99.90;;;;;;5065142;28;20039;-89
2023/09/22 01:02:16;;;;;;;2.63;1.55;;;13.90;99.90;;;;;;5073206;28;20032;-88
2023/09/22 01:04:42;;;;;;;2.80;1.70;;;13.80;99.90;;;;;;5057884;28;20750;-89
2023/09/22 01:07:09;;;;;;;2.42;1.80;;;13.90;99.90;;;;;;5075190;28;20138;-89
2023/09/22 01:09:41;;;;;;;3.58;1.88;;;13.80;99.90;;;;;;5056176;28;20048;-89
2023/09/22 01:12:06;;;;;;;3.05;2.20;;;13.80;99.90;;;;;;5069605;28;20032;-90
2023/09/22 01:14:32;;;;;;;4.03;2.45;;;13.90;99.90;;;;;;5074606;28;20039;-90
2023/09/22 01:16:58;;;;;;;5.20;3.15;;;13.80;99.90;;;;;;5087925;28;20131;-90
2023/09/22 01:19:25;;;;;;;4.75;3.25;;;14.00;99.90;;;;;;5055643;28;20047;-90
2023/09/22 01:21:50;;;;;;;7.07;4.25;;;13.90;99.90;;;;;;5054318;28;20121;-88
2023/09/22 01:24:16;;;;;;;10.60;5.20;;;13.80;99.90;;;;;;5058518;28;20036;-89
2023/09/22 01:26:42;;;;;;;8.85;4.95;;;13.90;99.90;;;;;;5056131;28;20461;-89
2023/09/22 01:29:08;;;;;;;9.82;5.05;;;14.00;99.90;;;;;;5070442;28;20050;-89
2023/09/22 01:31:35;;;;;;;8.20;5.13;;;13.80;99.90;;;;;;5124018;27;20040;-89
2023/09/22 01:34:02;;;;;;;9.88;5.68;;;13.80;99.90;;;;;;5057565;28;20122;-89
2023/09/22 01:36:28;;;;;;;11.25;6.28;;;13.90;99.90;;;;;;5073410;28;20056;-89
2023/09/22 01:38:55;;;;;;;9.88;5.53;;;13.80;99.90;;;;;;5091428;28;20513;-91
2023/09/22 01:41:21;;;;;;;9.63;5.87;;;13.90;99.90;;;;;;5051886;28;20485;-89
2023/09/22 01:43:47;;;;;;;12.30;6.80;;;13.80;99.90;;;;;;5056023;28;20116;-90
2023/09/22 01:46:13;;;;;;;12.77;7.28;;;13.90;99.90;;;;;;5056225;28;20075;-87
2023/09/22 01:48:39;;;;;;;13.32;6.97;;;13.80;99.90;;;;;;5071988;28;20074;-88
2023/09/22 01:51:05;;;;;;;13.70;7.22;;;13.80;99.90;;;;;;5072466;28;20032;-87
2023/09/22 01:53:31;;;;;;;11.82;7.47;;;13.90;99.90;;;;;;5057652;28;20140;-89
2023/09/22 01:55:57;;;;;;;14.50;7.97;;;13.90;99.90;;;;;;5070206;28;20816;-88
2023/09/22 01:58:22;;;;;;;17.23;8.40;;;14.00;99.90;;;;;;5063185;28;20035;-87
2023/09/22 02:00:48;;;;;;;12.50;7.97;;;13.80;99.90;;;;;;5073971;28;20094;-88
2023/09/22 02:03:14;;;;;;;13.45;8.10;;;13.70;99.90;;;;;;5069696;28;20121;-90
2023/09/22 02:05:40;;;;;;;15.55;8.27;;;13.80;99.90;;;;;;5069443;28;20035;-88
2023/09/22 02:08:08;;;;;;;17.98;9.30;;;13.90;99.90;;;;;;5063029;28;20043;-90
2023/09/22 02:10:34;;;;;;;19.15;9.70;;;13.70;99.90;;;;;;5075017;28;20452;-88
2023/09/22 02:13:00;;;;;;;18.63;9.88;;;13.80;99.90;;;;;;5081833;28;20479;-90
2023/09/22 02:15:25;;;;;;;15.90;9.93;;;13.70;99.90;;;;;;5090859;28;20058;-90
2023/09/22 02:17:51;;;;;;;16.23;9.35;;;13.90;99.90;;;;;;5056935;28;20032;-92
2023/09/22 02:20:23;;;;;;;18.50;10.93;;;13.90;99.90;;;;;;5060105;28;20036;-91
2023/09/22 02:22:50;;;;;;;17.52;10.02;;;13.90;99.90;;;;;;5065955;28;20040;-91
2023/09/22 02:25:17;;;;;;;;;;;14.00;99.90;;;;;;5053322;28;20043;-90
2023/09/22 02:27:51;;;;;;;20.73;11.10;;;13.80;99.90;;;;;;5086051;28;19916;-89
2023/09/22 02:30:17;;;;;;;19.75;11.25;;;13.90;99.90;;;;;;5052148;28;20045;-90
2023/09/22 02:32:46;;;;;;;23.45;11.23;;;14.00;99.90;;;;;;5062758;28;20052;-89
2023/09/22 02:35:13;;;;;;;18.23;11.40;;;13.80;99.90;;;;;;5072838;28;20036;-88
2023/09/22 02:37:40;;;;;;;18.60;10.52;;;13.80;99.90;;;;;;5076924;28;20070;-89
2023/09/22 02:40:07;;;;;;;20.58;11.60;;;13.90;99.90;;;;;;5040170;28;20044;-88
2023/09/22 02:42:33;;;;;;;24.80;11.98;;;13.80;99.90;;;;;;5057157;28;20454;-89
2023/09/22 02:44:59;;;;;;;21.35;11.85;;;13.70;99.90;;;;;;5065007;28;20047;-91
2023/09/22 02:47:28;;;;;;;17.83;11.57;;;13.80;99.90;;;;;;5056902;28;20046;-89
2023/09/22 02:49:57;;;;;;;20.77;11.90;;;13.80;99.90;;;;;;5078411;28;20081;-91
2023/09/22 02:52:23;;;;;;;26.35;13.13;;;13.80;99.90;;;;;;5061474;28;20071;-89
2023/09/22 02:54:57;;;;;;;20.17;12.65;;;13.90;99.90;;;;;;5041186;28;20075;-90
2023/09/22 02:57:23;;;;;;;26.13;13.80;;;14.00;99.90;;;;;;5054099;28;20119;-90
2023/09/22 02:59:54;;;;;;;24.27;14.00;;;14.10;99.90;;;;;;5056912;28;20062;-92
2023/09/22 03:02:21;;;;;;;21.88;13.07;;;14.10;99.90;;;;;;5039933;28;20032;-89
2023/09/22 03:04:47;;;;;;;21.38;13.40;;;13.90;99.90;;;;;;5057014;28;20047;-92
2023/09/22 03:07:13;;;;;;;19.88;13.15;;;13.90;99.90;;;;;;5057321;28;20414;-91
2023/09/22 03:09:39;;;;;;;24.45;13.90;;;13.90;99.90;;;;;;5074538;28;20397;-92
2023/09/22 03:12:05;;;;;;;23.33;13.68;;;13.90;99.90;;;;;;5039749;28;20120;-90
2023/09/22 03:14:31;;;;;;;21.88;13.95;;;14.20;99.90;;;;;;5070158;28;20045;-88
2023/09/22 03:16:57;;;;;;;22.30;13.35;;;14.10;99.90;;;;;;5040620;28;20049;-89
2023/09/22 03:19:23;;;;;;;20.80;13.13;;;14.00;99.90;;;;;;5085340;28;20115;-91
2023/09/22 03:21:49;;;;;;;26.25;14.10;;;14.00;99.90;;;;;;5073793;28;20475;-90
2023/09/22 03:24:15;;;;;;;22.73;13.80;;;14.20;99.90;;;;;;5055528;28;20037;-91
2023/09/22 03:26:41;;;;;;;24.27;13.52;;;14.10;99.90;;;;;;5058528;28;20081;-91
2023/09/22 03:29:07;;;;;;;26.10;14.57;;;14.30;99.90;;;;;;5073693;28;20048;-90
2023/09/22 03:31:32;;;;;;;28.77;14.68;;;14.20;99.90;;;;;;5057080;28;20197;-90
2023/09/22 03:33:58;;;;;;;29.42;14.90;;;14.00;99.90;;;;;;5059132;28;20089;-90
2023/09/22 03:36:24;;;;;;;26.10;14.80;;;14.20;99.90;;;;;;5040918;28;20488;-91
2023/09/22 03:38:51;;;;;;;26.30;14.80;;;14.00;99.90;;;;;;5040060;28;20036;-92
2023/09/22 03:41:18;;;;;;;22.10;14.02;;;14.00;99.90;;;;;;5049209;28;20032;-91
2023/09/22 03:43:44;;;;;;;19.27;12.90;;;14.00;99.90;;;;;;5065168;28;20372;-92
2023/09/22 03:46:10;;;;;;;22.88;13.30;;;14.10;99.90;;;;;;5058814;28;20429;-91
2023/09/22 03:48:37;;;;;;;24.53;15.17;;;14.20;99.90;;;;;;5054289;28;20423;-91
2023/09/22 03:51:04;;;;;;;20.92;13.95;;;14.30;99.90;;;;;;5061451;28;20445;-91
2023/09/22 03:53:30;;;;;;;20.95;13.05;;;14.00;99.90;;;;;;5077118;28;20044;-91
2023/09/22 03:55:55;;;;;;;23.73;13.23;;;14.00;99.90;;;;;;5042438;28;20457;-91
2023/09/22 03:58:21;;;;;;;20.17;13.25;;;14.20;99.90;;;;;;5057249;28;20121;-91
2023/09/22 04:00:47;;;;;;;21.55;13.50;;;14.00;99.90;;;;;;5076922;28;20594;-92
2023/09/22 04:03:13;;;;;;;20.70;12.57;;;14.10;99.90;;;;;;5075845;28;20047;-90
2023/09/22 04:05:40;;;;;;;20.98;11.23;;;14.20;99.90;;;;;;5057852;28;20032;-91
2023/09/22 04:08:06;;;;;;;16.40;10.02;;;14.00;99.90;;;;;;5067682;28;20048;-90
2023/09/22 04:10:35;;;;;;;17.23;10.25;;;14.20;99.90;;;;;;5077763;28;20044;-91
2023/09/22 04:13:00;;;;;;;16.80;9.60;;;14.20;99.90;;;;;;5078764;28;20039;-92
2023/09/22 04:15:26;;;;;;;17.42;10.02;;;14.00;99.90;;;;;;5092759;28;20036;-91
2023/09/22 04:17:52;;;;;;;21.77;11.00;;;14.00;99.90;;;;;;5062146;28;20156;-89
2023/09/22 04:20:28;;;;;;;20.33;9.95;;;14.00;99.90;;;;;;5072795;28;20067;-87
2023/09/22 04:22:56;;;;;;;16.75;9.93;;;14.20;99.90;;;;;;5062464;28;20032;-90
2023/09/22 04:25:29;;;;;;;17.73;10.50;;;14.10;99.90;;;;;;5077256;28;20544;-90
2023/09/22 04:27:57;;;;;;;21.83;11.20;;;13.90;99.90;;;;;;5059354;28;20048;-90
2023/09/22 04:30:25;;;;;;;16.30;9.40;;;14.10;99.90;;;;;;5052047;28;20048;-90
2023/09/22 04:32:54;;;;;;;18.83;10.60;;;14.10;99.90;;;;;;5072764;28;20534;-90
2023/09/22 04:35:20;;;;;;;18.05;10.43;;;14.00;99.90;;;;;;5075218;28;20547;-91
2023/09/22 04:37:46;;;;;;;14.63;8.18;;;14.10;99.90;;;;;;5062654;28;20044;-90
2023/09/22 04:40:24;;;;;;;15.18;9.65;;;13.90;99.90;;;;;;5075984;28;20055;-91
2023/09/22 04:42:50;;;;;;;;;;;13.90;99.90;;;;;;5059738;28;20036;-90
2023/09/22 04:45:21;;;;;;;14.75;8.38;;;13.80;99.90;;;;;;5052346;28;19916;-92
2023/09/22 04:47:47;;;;;;;16.85;9.05;;;14.10;99.90;;;;;;5059072;28;20097;-90
2023/09/22 04:50:17;;;;;;;17.33;9.23;;;13.90;99.90;;;;;;5066827;28;20122;-91
2023/09/22 04:52:47;;;;;;;16.70;9.18;;;13.80;99.90;;;;;;5058911;28;20083;-88
2023/09/22 04:55:16;;;;;;;15.38;8.93;;;14.00;99.90;;;;;;5051177;28;20064;-90
2023/09/22 04:57:42;;;;;;;13.52;8.52;;;13.90;99.90;;;;;;5064284;28;20487;-91
2023/09/22 05:00:15;;;;;;;15.52;8.73;;;13.80;99.90;;;;;;5108329;28;20119;-90
2023/09/22 05:02:44;;;;;;;17.10;9.07;;;13.90;99.90;;;;;;5069047;28;20043;-90
2023/09/22 05:05:11;;;;;;;13.75;8.82;;;14.00;99.90;;;;;;5058224;28;20071;-90
2023/09/22 05:07:37;;;;;;;;;;;13.90;99.90;;;;;;5108262;28;20577;-89
2023/09/22 05:10:03;;;;;;;19.33;10.32;;;13.90;99.90;;;;;;5087632;28;19930;-89
2023/09/22 05:12:30;;;;;;;18.33;10.98;;;13.80;99.90;;;;;;5057258;28;20451;-89
2023/09/22 05:14:58;;;;;;;17.33;11.48;;;13.70;99.90;;;;;;5036859;28;20453;-92
2023/09/22 05:17:28;;;;;;;18.55;11.20;;;13.70;99.90;;;;;;5061027;28;20491;-94
2023/09/22 05:19:54;;;;;;;17.15;11.23;;;13.70;99.90;;;;;;5046961;28;20045;-91
2023/09/22 05:22:20;;;;;;;18.73;11.57;;;13.80;99.90;;;;;;5059085;28;20364;-94
2023/09/22 05:24:47;;;;;;;18.92;10.93;;;13.70;99.90;;;;;;5032016;28;20044;-92
2023/09/22 05:27:14;;;;;;;18.90;11.05;;;12.50;99.90;;;;;;5098116;28;20040;-91
2023/09/22 05:29:41;;;;;;;19.48;11.13;;;13.60;99.90;;;;;;5075120;28;20499;-91
2023/09/22 05:32:10;;;;;;;17.60;11.37;;;13.60;99.90;;;;;;5074964;28;20032;-88
2023/09/22 05:34:39;;;;;;;20.98;11.43;;;13.60;99.90;;;;;;5054277;28;20463;-89
2023/09/22 05:37:05;;;;;;;18.52;10.98;;;13.50;99.90;;;;;;5058146;28;20738;-88
2023/09/22 05:39:31;;;;;;;19.15;11.40;;;13.50;99.90;;;;;;5057891;28;20062;-89
2023/09/22 05:41:57;;;;;;;15.43;10.90;;;13.70;99.90;;;;;;5041179;28;20039;-90
2023/09/22 05:44:23;;;;;;;17.80;11.45;;;13.40;99.90;;;;;;5040037;28;20105;-88
2023/09/22 05:46:52;;;;;;;19.45;11.13;;;13.70;99.90;;;;;;5037894;28;20040;-88
2023/09/22 05:49:17;;;;;;;16.52;10.85;;;13.70;99.90;;;;;;5058238;28;20441;-89
2023/09/22 05:51:43;;;;;;;17.88;11.07;;;13.60;99.90;;;;;;5038665;28;20032;-89
2023/09/22 05:54:09;;;;;;;16.00;11.70;;;13.50;99.90;;;;;;5058216;28;20110;-88
2023/09/22 05:56:35;;;;;;;20.02;11.98;;;13.70;99.90;;;;;;5060673;28;20497;-87
2023/09/22 05:59:03;;;;;;;15.98;11.55;;;13.60;99.90;;;;;;5065746;28;20040;-88
2023/09/22 06:01:30;;;;;;;18.30;12.15;;;13.60;99.90;;;;;;5060191;28;20043;-87
2023/09/22 06:03:56;;;;;;;17.17;11.65;;;13.70;99.90;;;;;;5037984;28;20028;-87
2023/09/22 06:06:22;;;;;;;18.42;12.90;;;13.60;99.90;;;;;;5073466;28;20046;-88
2023/09/22 06:08:50;;;;;;;17.77;12.27;;;13.00;99.90;;;;;;5040354;28;20040;-91
2023/09/22 06:11:17;;;;;;;19.40;12.70;;;13.70;99.90;;;;;;5052264;28;20122;-89
2023/09/22 06:13:42;;;;;;;17.50;11.00;;;13.70;99.90;;;;;;5054337;28;20040;-92
2023/09/22 06:16:09;;;;;;;18.42;12.20;;;13.10;99.90;;;;;;5050822;28;20069;-88
2023/09/22 06:18:35;;;;;;;18.63;12.77;;;13.70;99.90;;;;;;5085912;28;20043;-86
2023/09/22 06:21:02;;;;;;;21.00;13.30;;;13.70;99.90;;;;;;5053691;28;20039;-92
2023/09/22 06:23:28;;;;;;;22.05;13.80;;;13.10;99.90;;;;;;5068241;28;20028;-87
2023/09/22 06:26:05;;;;;;;23.30;13.80;;;13.90;99.90;;;;;;5052686;28;21255;-87
2023/09/22 06:28:31;;;;;;;18.58;12.18;;;13.70;99.90;;;;;;5077991;28;20630;-90
2023/09/22 06:31:01;;;;;;;17.92;12.68;;;14.50;99.90;;;;;;5038651;28;20042;-89
2023/09/22 06:33:27;;;;;;;23.15;13.52;;;13.60;99.90;;;;;;5055607;28;20083;-88
2023/09/22 06:35:57;;;;;;;21.00;13.88;;;13.80;99.90;;;;;;5080057;28;20125;-86
2023/09/22 06:38:23;;;;;;;19.88;13.15;;;13.80;99.90;;;;;;5071208;28;20063;-90
2023/09/22 06:40:50;;;;;;;20.98;13.63;;;13.80;99.90;;;;;;5069280;28;20036;-92
2023/09/22 06:43:16;;;;;;;21.85;13.82;;;13.60;99.90;;;;;;5074090;28;20047;-93
2023/09/22 06:45:42;;;;;;;18.77;12.57;;;13.80;99.90;;;;;;5057238;28;20036;-92
2023/09/22 06:48:09;;;;;;;20.75;12.77;;;13.70;99.90;;;;;;5074039;28;20123;-87
2023/09/22 06:50:38;;;;;;;19.75;12.35;;;13.80;99.90;;;;;;5073130;28;20046;-94
2023/09/22 06:53:04;;;;;;;20.20;12.65;;;13.80;99.90;;;;;;5053568;28;20044;-87
2023/09/22 06:55:32;;;;;;;19.80;12.98;;;13.90;99.90;;;;;;5069934;28;20080;-96
2023/09/22 06:58:00;;;;;;;18.27;12.45;;;13.90;99.90;;;;;;5039846;28;20527;-88
2023/09/22 07:00:28;;;;;;;18.15;12.27;;;13.80;99.90;;;;;;5060613;28;20051;-88
2023/09/22 07:02:55;;;;;;;19.02;11.57;;;13.90;99.90;;;;;;5061973;28;20089;-91
2023/09/22 07:05:21;;;;;;;16.75;12.23;;;13.80;99.90;;;;;;5043504;28;20139;-86
2023/09/22 07:07:49;;;;;;;17.45;11.13;;;14.10;99.90;;;;;;5060210;28;20123;-86
2023/09/22 07:10:16;;;;;;;17.75;11.52;;;14.10;99.90;;;;;;5060353;28;20035;-93
2023/09/22 07:12:45;;;;;;;19.42;12.57;;;14.10;99.90;;;;;;5058492;28;20047;-93
2023/09/22 07:15:11;;;;;;;16.13;10.80;;;13.90;99.90;;;;;;5067828;28;20093;-87
2023/09/22 07:17:37;;;;;;;17.05;11.85;;;14.10;99.90;;;;;;5077767;28;20788;-90
2023/09/22 07:20:05;;;;;;;16.67;11.52;;;13.90;99.90;;;;;;5059924;28;20040;-92
2023/09/22 07:22:33;;;;;;;17.23;11.40;;;13.90;99.90;;;;;;5059036;28;20039;-91
2023/09/22 07:25:00;;;;;;;16.60;11.07;;;14.10;99.90;;;;;;5081971;28;20036;-91
2023/09/22 07:27:26;;;;;;;16.52;10.27;;;13.90;99.90;;;;;;5076515;28;20079;-88
2023/09/22 07:29:51;;;;;;;14.80;10.85;;;14.00;99.90;;;;;;5059332;28;20031;-86
2023/09/22 07:32:18;;;;;;;14.82;10.75;;;13.90;99.90;;;;;;5077717;28;20123;-90
2023/09/22 07:34:45;;;;;;;12.63;9.43;;;13.90;99.90;;;;;;5089059;28;20051;-91
2023/09/22 07:37:12;;;;;;;15.43;9.75;;;14.10;99.90;;;;;;5086371;28;20559;-86
2023/09/22 07:39:38;;;;;;;13.90;9.10;;;14.00;99.90;;;;;;5093480;28;20051;-88
2023/09/22 07:42:05;;;;;;;13.23;8.50;;;13.90;99.90;;;;;;5060155;28;20043;-88
2023/09/22 07:44:31;;;;;;;13.80;9.05;;;13.90;99.90;;;;;;5076596;28;20039;-92
2023/09/22 07:46:59;;;;;;;13.48;10.07;;;13.90;99.90;;;;;;5077455;28;20036;-90
2023/09/22 07:49:26;;;;;;;13.02;8.93;;;13.80;99.90;;;;;;5073506;28;20044;-89
2023/09/22 07:51:52;;;;;;;11.73;8.68;;;13.90;99.90;;;;;;5069346;28;20123;-90
2023/09/22 07:54:20;;;;;;;11.60;8.43;;;13.70;99.90;;;;;;5077492;28;20122;-89
2023/09/22 07:56:46;;;;;;;11.77;8.60;;;13.80;99.90;;;;;;5073896;28;20486;-87
2023/09/22 07:59:14;;;;;;;11.30;8.20;;;13.80;99.90;;;;;;5073203;28;20501;-90
2023/09/22 08:01:43;;;;;;;13.13;8.20;;;13.70;99.90;;;;;;5088293;28;20039;-89
2023/09/22 08:04:10;;;;;;;12.75;8.43;;;13.80;99.90;;;;;;5104791;28;20175;-89
2023/09/22 08:06:36;;;;;;;12.95;8.63;;;13.70;99.90;;;;;;5060546;28;20051;-88
2023/09/22 08:09:03;;;;;;;12.48;8.98;;;13.80;99.90;;;;;;5059720;28;20040;-90
2023/09/22 08:11:30;;;;;;;13.80;8.40;;;13.80;99.90;;;;;;5061205;28;20040;-88
2023/09/22 08:13:58;;;;;;;10.95;8.43;;;13.90;99.90;;;;;;5066221;28;20506;-93
2023/09/22 08:16:25;;;;;;;12.55;8.43;;;13.80;99.90;;;;;;5065081;28;20037;-86
2023/09/22 08:18:51;;;;;;;10.07;7.80;;;13.70;99.90;;;;;;5076454;28;20493;-89
2023/09/22 08:21:17;;;;;;;12.40;8.30;;;13.80;99.90;;;;;;5076004;28;20032;-93
2023/09/22 08:23:42;;;;;;;15.35;8.50;;;13.80;99.90;;;;;;5056608;28;20032;-90
2023/09/22 08:26:08;;;;;;;14.02;8.95;;;13.90;99.90;;;;;;5072030;28;20035;-91
2023/09/22 08:28:37;;;;;;;11.02;7.65;;;13.70;99.90;;;;;;5076812;28;20036;-88
2023/09/22 08:31:05;;;;;;;11.35;8.20;;;13.70;99.90;;;;;;5077368;28;20475;-88
2023/09/22 08:33:32;;;;;;;10.00;7.05;;;13.80;99.90;;;;;;5077068;28;20036;-93
2023/09/22 08:35:57;;;;;;;11.77;7.75;;;13.80;99.90;;;;;;5076821;28;20076;-93
2023/09/22 08:38:24;;;;;;;9.00;6.80;;;13.80;99.90;;;;;;5076844;28;20095;-91
2023/09/22 08:40:50;;;;;;;10.15;6.85;;;13.80;99.90;;;;;;5074040;28;20044;-90
2023/09/22 08:43:16;;;;;;;9.43;7.03;;;13.90;99.90;;;;;;5050393;28;20741;-94
2023/09/22 08:45:42;;;;;;;11.90;7.55;;;14.10;99.90;;;;;;5110846;28;20048;-92
2023/09/22 08:48:08;;;;;;;11.48;6.75;;;14.10;99.90;;;;;;5077117;28;20043;-91
2023/09/22 08:50:35;;;;;;;9.93;6.47;;;14.20;99.90;;;;;;5110177;28;20051;-92
2023/09/22 08:53:02;;;;;;;8.05;6.20;;;15.10;99.90;;;;;;5077222;28;20458;-94
2023/09/22 08:55:29;;;;;;;9.05;5.65;;;14.30;99.90;;;;;;5063638;28;20505;-92
2023/09/22 08:57:54;;;;;;;11.65;6.82;;;14.30;99.90;;;;;;5072984;28;20055;-93
2023/09/22 09:00:30;;;;;;;8.00;5.82;;;14.20;99.90;;;;;;5075960;28;20386;-91
2023/09/22 09:02:58;;;;;;;8.00;5.47;;;14.40;99.90;;;;;;5060163;28;20036;-90
2023/09/22 09:05:29;;;;;;;5.85;5.22;;;14.30;99.90;;;;;;5126352;27;20032;-93
2023/09/22 09:08:09;;;;;;;5.85;4.50;;;14.20;99.90;;;;;;5093035;28;20043;-89
2023/09/22 09:10:35;;;;;;;6.70;4.13;;;14.30;99.90;;;;;;5075576;28;20085;-91
2023/09/22 09:13:03;;;;;;;4.38;3.45;;;14.30;99.90;;;;;;5078237;28;20044;-91
2023/09/22 09:15:54;;;;;;;4.50;3.30;;;14.20;99.90;;;;;;5090523;28;20154;-93
2023/09/22 09:18:21;;;;;;;3.67;3.22;;;14.20;99.90;;;;;;5057782;28;20036;-89
2023/09/22 09:20:48;;;;;;;5.70;4.20;;;14.30;99.90;;;;;;5060041;28;20040;-89
2023/09/22 09:23:18;;;;;;;5.10;4.05;;;14.30;99.90;;;;;;5122667;27;20036;-92
2023/09/22 09:25:47;;;;;;;7.38;4.55;;;14.50;99.90;;;;;;5066197;28;20127;-90
2023/09/22 09:28:15;;;;;;;5.85;3.65;;;14.60;99.90;;;;;;5068829;28;20036;-92
2023/09/22 09:30:55;;;;;;;4.70;3.40;;;;;;;;;;5068924;28;20044;-93
2023/09/22 09:33:22;;;;;;;4.30;2.60;;;15.30;99.90;;;;;;5074733;28;20097;-91
2023/09/22 09:35:49;;;;;;;3.42;2.53;;;15.60;99.90;;;;;;5058779;28;20040;-91
2023/09/22 09:38:17;;;;;;;3.05;2.17;;;15.80;99.90;;;;;;5058169;28;20056;-93
2023/09/22 09:40:43;;;;;;;6.72;2.60;;;15.90;99.90;;;;;;5057129;28;20048;-89
2023/09/22 09:43:12;;;;;;;4.63;2.55;;;16.10;99.90;;;;;;5092538;28;20044;-92
2023/09/22 09:45:47;;;;;;;4.47;2.45;;;16.20;99.90;;;;;;5072217;28;20036;-91
2023/09/22 09:48:17;;;;;;;3.38;2.10;;;16.40;99.90;;;;;;5085606;28;20122;-89
2023/09/22 09:50:48;;;;;;;3.83;1.90;;;16.50;99.90;;;;;;5076247;28;20058;-91
2023/09/22 09:53:22;;;;;;;2.70;1.65;;;16.60;99.90;;;;;;5058084;28;20461;-89
2023/09/22 09:55:50;;;;;;;3.28;1.98;;;16.70;99.90;;;;;;5090991;28;20036;-91
2023/09/22 09:58:17;;;;;;;3.65;1.55;;;16.80;99.90;;;;;;5070650;28;20044;-87
2023/09/22 10:00:44;;;;;;;3.33;1.48;;;16.90;99.90;;;;;;5104024;27;20036;-90
2023/09/22 10:03:12;;;;;;;2.55;1.20;;;17.00;99.90;;;;;;5090021;28;20039;-93
2023/09/22 10:05:39;;;;;;;3.60;1.30;;;17.10;99.90;;;;;;5090036;28;20082;-91
2023/09/22 10:08:07;;;;;;;1.48;0.90;;;17.20;99.90;;;;;;5074186;28;20509;-89
2023/09/22 10:10:38;;;;;;;2.83;1.27;;;17.40;99.90;;;;;;5092025;28;20048;-88
2023/09/22 10:13:04;;;;;;;4.60;1.20;;;17.40;99.90;;;;;;5073043;28;20048;-90
2023/09/22 10:15:50;;;;;;;3.03;1.35;;;17.30;99.90;;;;;;5108060;28;20517;-90
2023/09/22 10:18:17;;;;;;;2.75;1.13;;;17.00;99.90;;;;;;5075374;28;20066;-92
2023/09/22 10:20:45;;;;;;;2.50;1.20;;;17.00;99.90;;;;;;5074961;28;20040;-91
2023/09/22 10:23:25;;;;;;;1.38;0.80;;;16.90;99.90;;;;;;5091034;28;20040;-92
2023/09/22 10:26:19;;;;;;;2.45;0.77;;;16.90;99.90;;;;;;5055821;28;20475;-90
2023/09/22 10:28:45;;;;;;;3.63;0.93;;;16.90;99.90;;;;;;5066450;28;20048;-89
2023/09/22 10:31:11;;;;;;;1.20;0.90;;;16.90;99.90;;;;;;5074250;28;20630;-89
2023/09/22 10:33:38;;;;;;;1.23;0.70;;;16.80;99.90;;;;;;5056229;28;20127;-90
2023/09/22 10:36:08;;;;;;;1.63;0.80;;;16.90;99.90;;;;;;5074356;28;20048;-91
2023/09/22 10:38:55;;;;;;;1.42;0.82;;;16.80;99.90;;;;;;5090871;28;20105;-89
2023/09/22 10:41:21;;;;;;;3.55;0.95;;;17.00;99.90;;;;;;5057659;28;20097;-88
2023/09/22 10:43:58;;;;;;;2.57;1.00;;;17.00;99.90;;;;;;5073805;28;20032;-87
2023/09/22 10:46:25;;;;;;;2.05;0.95;;;17.10;99.90;;;;;;5074335;28;20067;-88
2023/09/22 10:48:51;;;;;;;3.35;1.10;;;17.30;99.90;;;;;;5073351;28;20188;-92
2023/09/22 10:51:18;;;;;;;1.48;0.90;;;17.40;99.90;;;;;;5073711;28;20044;-86
2023/09/22 10:54:04;;;;;;;1.48;0.90;;;17.60;99.90;;;;;;5091653;28;20086;-91
2023/09/22 10:56:35;;;;;;;1.15;0.68;;;17.60;99.90;;;;;;5090951;28;20051;-88
2023/09/22 10:59:01;;;;;;;1.95;0.50;;;17.60;99.90;;;;;;5084150;28;20040;-87
2023/09/22 11:01:28;;;;;;;1.60;0.63;;;17.60;99.90;;;;;;5085319;28;20067;-88
2023/09/22 11:03:53;;;;;;;0.68;0.50;;;17.70;99.90;;;;;;5072413;28;20098;-90
2023/09/22 11:06:20;;;;;;;1.25;0.52;;;17.50;99.90;;;;;;5088064;28;20040;-87
2023/09/22 11:08:53;;;;;;;2.17;0.50;;;17.40;99.90;;;;;;5073386;28;20095;-90
2023/09/22 11:11:19;;;;;;;1.15;0.60;;;17.30;99.90;;;;;;5057124;28;20032;-89
2023/09/22 11:13:53;;;;;;;0.82;0.77;;;17.20;99.90;;;;;;5052721;28;20051;-87
2023/09/22 11:16:20;;;;;;;1.25;0.63;;;17.00;99.90;;;;;;5053370;28;20036;-89
2023/09/22 11:18:46;;;;;;;;;;;16.90;99.90;;;;;;5072062;28;20399;-87
2023/09/22 11:21:13;;;;;;;1.63;1.00;;;16.80;99.90;;;;;;5106123;28;19916;-87
2023/09/22 11:23:39;;;;;;;2.58;0.93;;;16.80;99.90;;;;;;5079481;28;20039;-88
2023/09/22 11:26:10;;;;;;;1.65;0.80;;;16.70;99.90;;;;;;5057168;28;20039;-88
2023/09/22 11:28:43;;;;;;;1.63;0.70;;;16.70;99.90;;;;;;5073304;28;20133;-90
2023/09/22 11:31:09;;;;;;;1.58;0.90;;;16.70;99.90;;;;;;5070009;28;20037;-89
2023/09/22 11:33:38;;;;;;;1.30;1.00;;;16.70;99.90;;;;;;5063915;28;20278;-87
2023/09/22 11:36:05;;;;;;;1.55;0.90;;;16.60;99.90;;;;;;5072722;28;20032;-89
2023/09/22 11:38:32;;;;;;;2.97;0.98;;;16.60;99.90;;;;;;5056174;28;20051;-90
2023/09/22 11:41:10;;;;;;;2.08;1.15;;;16.60;99.90;;;;;;5087294;28;20044;-90
2023/09/22 11:43:56;;;;;;;1.67;0.95;;;16.50;99.90;;;;;;5073483;28;20052;-90
2023/09/22 11:46:27;;;;;;;2.03;1.10;;;16.50;99.90;;;;;;5074368;28;20135;-89
2023/09/22 11:49:07;;;;;;;2.63;1.30;;;16.50;99.90;;;;;;5074031;28;20040;-90
2023/09/22 11:51:52;;;;;;;2.33;1.00;;;16.40;99.90;;;;;;5089822;28;20036;-87
2023/09/22 11:54:19;;;;;;;1.40;0.90;;;16.40;99.90;;;;;;5093460;28;20119;-88
2023/09/22 11:56:46;;;;;;;1.60;0.80;;;16.40;99.90;;;;;;5075416;28;20040;-89
2023/09/22 11:59:17;;;;;;;1.60;0.90;;;16.50;99.90;;;;;;5075179;28;20031;-87
2023/09/22 12:01:45;;;;;;;1.65;1.00;;;16.60;99.90;;;;;;5076237;28;20040;-88
2023/09/22 12:04:11;;;;;;;1.20;0.80;;;16.80;99.90;;;;;;5126736;27;20542;-88
2023/09/22 12:06:41;;;;;;;3.03;0.80;;;16.80;99.90;;;;;;5091088;28;20040;-89
2023/09/22 12:09:08;;;;;;;1.33;0.90;;;16.80;99.90;;;;;;5092476;28;20050;-88
2023/09/22 12:11:35;;;;;;;1.40;0.88;;;16.80;99.90;;;;;;5058405;28;20589;-88
2023/09/22 12:14:03;;;;;;;1.15;0.80;;;16.80;99.90;;;;;;5075278;28;20047;-87
2023/09/22 12:16:29;;;;;;;2.58;0.93;;;16.80;99.90;;;;;;5058924;28;20358;-89
2023/09/22 12:18:55;;;;;;;1.10;0.77;;;16.60;99.90;;;;;;5058889;28;20036;-89
2023/09/22 12:21:21;;;;;;;1.38;0.80;;;16.60;99.90;;;;;;5075263;28;20332;-87
2023/09/22 12:23:46;;;;;;;1.10;0.90;;;16.50;99.90;;;;;;5059370;28;20040;-87
2023/09/22 12:26:12;;;;;;;1.02;0.70;;;16.50;99.90;;;;;;5057381;28;20040;-87
2023/09/22 12:28:40;;;;;;;2.10;0.80;;;16.40;99.90;;;;;;5058547;28;20111;-89
2023/09/22 12:31:06;;;;;;;1.20;0.77;;;16.30;99.90;;;;;;5075448;28;20394;-89
2023/09/22 12:33:32;;;;;;;0.95;0.70;;;16.30;99.90;;;;;;5057353;28;20674;-87
2023/09/22 12:35:58;;;;;;;1.17;0.80;;;16.30;99.90;;;;;;5056860;28;20127;-88
2023/09/22 12:38:25;;;;;;;1.05;0.82;;;16.20;99.90;;;;;;5042082;28;20056;-87
2023/09/22 12:40:51;;;;;;;2.25;1.00;;;16.20;99.90;;;;;;5042149;28;20509;-88